createdAt,value
2023-01-19T00:00:39.984Z,5.96
2023-01-19T00:03:15.830Z,5.97
2023-01-19T00:05:44.222Z,6.01
2023-01-19T00:08:17.685Z,6.04
2023-01-19T00:10:49.491Z,6.07
2023-01-19T03:29:00.566Z,5.61
2023-01-19T06:41:39.761Z,5.88
2023-01-19T07:22:14.657Z,6.30
2023-01-19T07:24:43.727Z,6.33
2023-01-19T07:27:16.974Z,6.38
2023-01-19T07:29:50.534Z,6.43
2023-01-19T07:32:17.805Z,6.51
2023-01-19T07:34:46.650Z,6.57
2023-01-19T07:37:14.891Z,6.59
2023-01-19T07:39:42.168Z,6.62
2023-01-19T07:42:09.414Z,6.62
2023-01-19T07:44:37.436Z,6.59
2023-01-19T07:47:08.018Z,6.57
2023-01-19T07:49:38.143Z,6.54
2023-01-19T07:52:06.307Z,6.52
2023-01-19T07:54:33.738Z,6.51
2023-01-19T07:57:04.568Z,6.51
2023-01-19T07:59:32.547Z,6.50
2023-01-19T08:01:59.932Z,6.50
2023-01-19T08:04:27.807Z,6.50
2023-01-19T08:06:57.171Z,6.50
2023-01-19T08:09:27.729Z,6.53
2023-01-19T08:11:59.930Z,6.57
2023-01-19T08:14:29.957Z,6.61
2023-01-19T08:17:04.186Z,6.65
2023-01-19T08:19:31.308Z,6.67
2023-01-19T08:22:22.715Z,6.70
2023-01-19T08:24:56.597Z,6.74
2023-01-19T08:27:23.852Z,6.76
2023-01-19T08:29:52.400Z,6.80
2023-01-19T08:32:28.654Z,6.84
2023-01-19T08:34:57.645Z,6.91
2023-01-19T08:37:27.185Z,6.96
2023-01-19T08:39:55.429Z,7.01
2023-01-19T08:42:22.814Z,7.06
2023-01-19T08:44:58.020Z,7.09
2023-01-19T08:47:25.962Z,7.12
2023-01-19T08:49:53.401Z,7.13
2023-01-19T08:52:20.649Z,7.11
2023-01-19T08:54:53.032Z,7.12
2023-01-19T08:57:21.354Z,7.10
2023-01-19T08:59:48.839Z,7.10
2023-01-19T09:02:16.072Z,7.15
2023-01-19T09:04:43.351Z,7.17
2023-01-19T09:14:45.156Z,7.37
2023-01-19T09:17:14.762Z,7.41
2023-01-19T09:19:44.717Z,7.44
2023-01-19T09:22:34.163Z,7.47
2023-01-19T09:25:04.103Z,7.48
2023-01-19T09:33:51.839Z,7.46
2023-01-19T09:36:19.627Z,7.43
2023-01-19T09:38:47.068Z,7.42
2023-01-19T09:41:21.637Z,7.42
2023-01-19T09:43:54.760Z,7.42
2023-01-19T09:46:42.804Z,7.43
2023-01-19T09:49:18.899Z,7.46
2023-01-19T09:51:50.386Z,7.49
2023-01-19T09:54:19.826Z,7.53
2023-01-19T09:56:50.687Z,7.59
2023-01-19T09:59:33.792Z,7.65
2023-01-19T10:02:04.034Z,7.70
2023-01-19T10:04:49.447Z,7.75
2023-01-19T10:07:31.821Z,7.83
2023-01-19T10:10:03.465Z,7.89
2023-01-19T10:13:35.788Z,7.94
2023-01-19T10:16:41.736Z,8.04
2023-01-19T10:19:21.919Z,8.11
2023-01-19T10:21:50.450Z,8.19
2023-01-19T10:24:24.758Z,8.23
2023-01-19T10:26:54.811Z,8.25
2023-01-19T10:29:23.032Z,8.28
2023-01-19T10:31:52.846Z,8.30
2023-01-19T10:34:23.349Z,8.31
2023-01-19T10:37:24.703Z,8.30
2023-01-19T10:39:57.697Z,8.27
2023-01-19T10:42:28.666Z,8.22
2023-01-19T10:44:55.812Z,8.19
2023-01-19T10:47:33.828Z,8.17
2023-01-19T10:50:01.050Z,8.16
2023-01-19T10:52:39.392Z,8.20
2023-01-19T10:55:08.903Z,8.27
2023-01-19T10:57:39.851Z,8.34
2023-01-19T11:00:34.140Z,8.49
2023-01-19T11:03:03.508Z,8.72
2023-01-19T11:05:33.519Z,8.96
2023-01-19T11:08:00.754Z,9.25
2023-01-19T11:10:29.444Z,9.49
2023-01-19T11:13:12.996Z,9.68
2023-01-19T11:16:05.522Z,9.79
2023-01-19T11:18:35.126Z,9.81
2023-01-19T11:21:07.589Z,9.80
2023-01-19T11:23:44.379Z,9.83
2023-01-19T11:26:16.696Z,9.91
2023-01-19T11:28:48.109Z,9.98
2023-01-19T11:31:40.300Z,9.98
2023-01-19T11:34:34.601Z,9.95
2023-01-19T11:37:21.470Z,9.86
2023-01-19T11:39:50.615Z,9.83
2023-01-19T11:42:18.180Z,9.90
2023-01-19T11:44:52.698Z,9.96
2023-01-19T11:47:49.865Z,10.06
2023-01-19T11:50:35.977Z,10.20
2023-01-19T11:53:18.906Z,10.27
2023-01-19T11:56:09.387Z,10.25
2023-01-19T11:58:41.891Z,10.20
2023-01-19T12:01:50.032Z,10.17
2023-01-19T12:04:22.478Z,10.18
2023-01-19T12:06:54.638Z,10.24
2023-01-19T12:09:31.348Z,10.23
2023-01-19T12:12:13.156Z,10.16
2023-01-19T12:14:44.197Z,10.10
2023-01-19T12:17:25.110Z,10.05
2023-01-19T12:20:49.008Z,10.02
2023-01-19T12:23:46.733Z,10.04
2023-01-19T12:26:29.344Z,10.14
2023-01-19T12:29:18.919Z,10.25
2023-01-19T12:31:50.471Z,10.43
2023-01-19T12:34:31.613Z,10.57
2023-01-19T12:37:06.795Z,10.69
2023-01-19T12:39:39.585Z,10.75
2023-01-19T12:42:15.025Z,10.74
2023-01-19T12:44:42.678Z,10.70
2023-01-19T12:47:16.047Z,10.66
2023-01-19T12:49:47.813Z,10.61
2023-01-19T12:52:27.070Z,10.58
2023-01-19T12:55:14.454Z,10.56
2023-01-19T12:57:55.474Z,10.54
2023-01-19T13:00:23.377Z,10.51
2023-01-19T13:02:54.368Z,10.49
2023-01-19T13:05:32.645Z,10.50
2023-01-19T13:08:17.722Z,10.54
2023-01-19T13:11:21.250Z,10.77
2023-01-19T13:14:36.968Z,11.06
2023-01-19T13:17:25.435Z,11.29
2023-01-19T13:19:59.202Z,11.36
2023-01-19T13:23:15.519Z,11.33
2023-01-19T13:25:48.017Z,11.24
2023-01-19T13:28:19.734Z,11.14
2023-01-19T13:30:54.522Z,11.06
2023-01-19T13:33:24.480Z,10.98
2023-01-19T13:35:55.515Z,10.91
2023-01-19T13:38:25.504Z,10.87
2023-01-19T13:40:55.845Z,10.84
2023-01-19T13:43:29.098Z,10.80
2023-01-19T13:45:56.438Z,10.75
2023-01-19T13:48:24.534Z,10.73
2023-01-19T13:51:04.360Z,10.69
2023-01-19T13:53:35.637Z,10.66
2023-01-19T13:56:22.383Z,10.62
2023-01-19T13:59:19.000Z,10.58
2023-01-19T14:01:47.059Z,10.52
2023-01-19T14:04:28.467Z,10.47
2023-01-19T14:07:00.514Z,10.42
2023-01-19T14:09:30.641Z,10.37
2023-01-19T14:12:41.610Z,10.35
2023-01-19T14:16:35.745Z,10.32
2023-01-19T14:28:40.317Z,10.10
2023-01-19T14:40:10.875Z,9.73
2023-01-19T15:00:50.440Z,9.35
2023-01-19T20:19:25.108Z,8.32
2023-01-19T20:35:28.661Z,8.31
2023-01-19T21:00:55.474Z,8.23
2023-01-19T21:22:27.136Z,8.13
2023-01-19T21:24:54.168Z,8.08
2023-01-19T21:27:24.092Z,8.03
2023-01-19T21:29:51.334Z,7.99
2023-01-19T21:32:18.331Z,7.96
2023-01-19T21:42:47.399Z,7.91
2023-01-19T21:45:14.680Z,7.88
2023-01-19T21:47:41.981Z,7.87
2023-01-19T21:50:10.001Z,7.85
2023-01-19T21:52:37.153Z,7.83
2023-01-19T21:55:10.839Z,7.81
2023-01-19T21:57:38.256Z,7.81
2023-01-19T22:00:10.315Z,7.81
2023-01-19T22:02:39.146Z,7.78
2023-01-19T22:05:07.136Z,7.77
2023-01-19T22:07:34.287Z,7.76
2023-01-19T22:10:01.170Z,7.75
2023-01-19T22:12:28.286Z,7.75
2023-01-19T22:14:55.153Z,7.76
2023-01-19T22:17:22.229Z,7.80
2023-01-19T22:19:49.349Z,7.83
2023-01-19T22:22:16.462Z,7.85
2023-01-19T22:32:28.194Z,7.98
2023-01-19T22:34:55.193Z,7.98
2023-01-19T22:45:42.876Z,7.97
2023-01-19T22:48:09.796Z,7.97
2023-01-19T22:50:36.517Z,7.98
2023-01-19T22:53:03.249Z,7.99
2023-01-19T22:55:30.062Z,7.99
2023-01-19T22:57:56.844Z,7.99
2023-01-19T23:00:23.551Z,7.99
2023-01-19T23:02:50.253Z,7.97
2023-01-19T23:05:17.322Z,7.96
2023-01-19T23:07:50.396Z,7.94
2023-01-19T23:10:17.242Z,7.90
2023-01-19T23:17:41.053Z,7.85
2023-01-19T23:20:32.944Z,7.87
